createdAt,value
2018-04-26T00:00:18.717Z,2.60
2018-04-26T00:02:46.305Z,3.57
2018-04-26T00:05:13.912Z,2.60
2018-04-26T00:07:41.415Z,2.53
2018-04-26T00:10:08.948Z,3.33
2018-04-26T00:12:36.438Z,2.50
2018-04-26T00:15:03.960Z,3.03
2018-04-26T00:17:31.540Z,2.77
2018-04-26T00:19:59.936Z,3.47
2018-04-26T00:22:28.207Z,2.57
2018-04-26T00:24:55.801Z,3.47
2018-04-26T00:27:24.045Z,3.17
2018-04-26T00:29:51.530Z,2.97
2018-04-26T00:32:19.876Z,2.87
2018-04-26T00:34:47.390Z,3.00
2018-04-26T00:37:14.925Z,3.67
2018-04-26T00:39:42.527Z,2.70
2018-04-26T00:42:10.927Z,3.90
2018-04-26T00:44:38.403Z,3.43
2018-04-26T00:47:05.917Z,3.57
2018-04-26T00:49:33.387Z,3.53
2018-04-26T00:52:01.610Z,3.80
2018-04-26T00:54:29.101Z,3.23
2018-04-26T00:56:56.633Z,3.30
2018-04-26T00:59:24.143Z,3.70
2018-04-26T01:01:52.400Z,3.67
2018-04-26T01:04:19.895Z,4.20
2018-04-26T01:06:47.496Z,3.80
2018-04-26T01:09:15.870Z,3.50
2018-04-26T01:11:43.436Z,3.47
2018-04-26T01:14:10.933Z,3.53
2018-04-26T01:16:38.525Z,4.03
2018-04-26T01:19:07.070Z,4.33
2018-04-26T01:21:35.369Z,3.53
2018-04-26T01:24:03.644Z,4.03
2018-04-26T01:26:31.240Z,3.40
2018-04-26T01:28:59.631Z,3.87
2018-04-26T01:31:27.865Z,3.97
2018-04-26T01:33:55.371Z,3.90
2018-04-26T01:36:34.850Z,4.00
2018-04-26T01:39:02.335Z,3.83
2018-04-26T01:41:29.874Z,4.93
2018-04-26T01:43:58.118Z,4.50
2018-04-26T01:46:25.634Z,4.30
2018-04-26T01:48:54.004Z,4.67
2018-04-26T01:51:21.479Z,4.40
2018-04-26T01:53:49.000Z,4.60
2018-04-26T01:56:16.562Z,4.67
2018-04-26T01:58:44.044Z,4.17
2018-04-26T02:01:11.556Z,4.13
2018-04-26T02:03:39.076Z,4.73
2018-04-26T02:06:06.567Z,4.00
2018-04-26T02:08:34.073Z,4.90
2018-04-26T02:11:01.589Z,4.47
2018-04-26T02:13:29.196Z,4.97
2018-04-26T02:15:57.639Z,4.60
2018-04-26T02:18:25.123Z,5.03
2018-04-26T02:20:52.639Z,4.60
2018-04-26T02:23:20.928Z,4.53
2018-04-26T02:25:49.169Z,4.10
2018-04-26T02:28:16.681Z,5.30
2018-04-26T02:30:44.191Z,4.90
2018-04-26T02:33:11.724Z,5.13
2018-04-26T02:35:39.226Z,5.40
2018-04-26T02:38:06.772Z,5.27
2018-04-26T02:40:34.457Z,5.23
2018-04-26T02:43:01.930Z,6.00
2018-04-26T02:45:30.248Z,5.27
2018-04-26T02:47:57.815Z,5.67
2018-04-26T02:50:25.291Z,5.40
2018-04-26T02:52:52.818Z,5.80
2018-04-26T02:55:20.327Z,5.83
2018-04-26T02:57:47.936Z,5.90
2018-04-26T03:00:15.447Z,5.73
2018-04-26T03:02:43.694Z,6.20
2018-04-26T03:05:11.311Z,5.33
2018-04-26T03:07:38.796Z,6.30
2018-04-26T03:10:06.298Z,5.60
2018-04-26T03:12:33.819Z,6.10
2018-04-26T03:15:02.211Z,6.00
2018-04-26T03:17:30.448Z,6.10
2018-04-26T03:19:57.947Z,6.07
2018-04-26T03:22:26.403Z,6.03
2018-04-26T03:24:53.875Z,6.40
2018-04-26T03:27:21.364Z,6.40
2018-04-26T03:29:48.991Z,6.20
2018-04-26T03:32:16.685Z,6.40
2018-04-26T03:34:44.201Z,7.17
2018-04-26T03:37:12.504Z,6.53
2018-04-26T03:39:40.001Z,7.17
2018-04-26T03:42:07.515Z,6.53
2018-04-26T03:44:35.059Z,6.17
2018-04-26T03:47:02.551Z,6.20
2018-04-26T03:49:30.073Z,6.60
2018-04-26T03:51:57.730Z,7.00
2018-04-26T03:54:26.017Z,6.37
2018-04-26T03:56:54.394Z,7.47
2018-04-26T03:59:23.388Z,6.43
2018-04-26T04:02:02.954Z,6.60
2018-04-26T04:04:51.776Z,7.80
2018-04-26T04:07:19.418Z,8.00
2018-04-26T04:09:47.727Z,7.27
2018-04-26T04:12:15.260Z,7.00
2018-04-26T04:14:43.651Z,7.57
2018-04-26T04:17:11.175Z,7.60
2018-04-26T04:19:38.681Z,7.47
2018-04-26T04:22:06.326Z,7.50
2018-04-26T04:24:33.820Z,7.67
2018-04-26T04:27:05.395Z,7.97
2018-04-26T04:29:33.901Z,7.50
2018-04-26T04:32:01.492Z,7.53
2018-04-26T04:34:29.876Z,7.70
2018-04-26T04:36:58.156Z,7.03
2018-04-26T04:39:25.819Z,8.33
2018-04-26T04:41:54.127Z,8.37
2018-04-26T04:44:22.387Z,8.17
2018-04-26T04:46:49.912Z,8.97
2018-04-26T04:49:17.404Z,9.37
2018-04-26T04:51:44.919Z,7.47
2018-04-26T04:54:12.417Z,8.23
2018-04-26T04:56:39.939Z,7.27
2018-04-26T04:59:07.624Z,7.80
2018-04-26T05:01:36.619Z,7.10
2018-04-26T05:04:04.136Z,7.87
2018-04-26T05:06:31.647Z,7.90
2018-04-26T05:08:59.260Z,7.10
2018-04-26T05:11:26.880Z,7.47
2018-04-26T05:13:54.686Z,8.07
2018-04-26T05:16:22.106Z,8.07
2018-04-26T05:18:49.725Z,8.73
2018-04-26T05:21:18.775Z,7.73
2018-04-26T05:23:46.316Z,9.50
2018-04-26T05:26:15.417Z,8.90
2018-04-26T05:28:43.320Z,8.60
2018-04-26T05:31:11.580Z,9.20
2018-04-26T05:33:40.071Z,9.13
2018-04-26T05:36:07.547Z,9.00
2018-04-26T05:38:35.040Z,9.20
2018-04-26T05:41:03.320Z,9.00
2018-04-26T05:43:31.629Z,9.47
2018-04-26T05:45:59.200Z,9.60
2018-04-26T05:48:26.699Z,9.97
2018-04-26T05:50:54.175Z,9.93
2018-04-26T05:53:21.810Z,9.60
2018-04-26T05:55:50.136Z,10.80
2018-04-26T05:58:18.373Z,11.60
2018-04-26T06:00:46.666Z,9.33
2018-04-26T06:03:14.957Z,10.70
2018-04-26T06:05:43.488Z,10.60
2018-04-26T06:08:11.008Z,13.83
2018-04-26T06:10:39.320Z,10.20
2018-04-26T06:13:06.968Z,10.60
2018-04-26T06:15:35.227Z,10.93
2018-04-26T06:18:02.759Z,10.30
2018-04-26T06:20:30.237Z,11.23
2018-04-26T06:22:57.749Z,11.13
2018-04-26T06:25:25.249Z,10.73
2018-04-26T06:27:53.520Z,11.53
2018-04-26T06:30:21.135Z,11.10
2018-04-26T06:32:48.679Z,13.17
2018-04-26T06:35:16.961Z,11.57
2018-04-26T06:37:45.240Z,10.47
2018-04-26T06:40:12.905Z,10.70
2018-04-26T06:42:41.161Z,11.33
2018-04-26T06:45:08.679Z,10.70
2018-04-26T06:47:36.931Z,9.90
2018-04-26T06:50:04.434Z,12.70
2018-04-26T06:52:32.741Z,11.00
2018-04-26T06:55:01.006Z,9.33
2018-04-26T06:57:28.616Z,10.57
2018-04-26T06:59:56.125Z,11.80
2018-04-26T07:02:23.649Z,10.70
2018-04-26T07:04:51.129Z,10.47
2018-04-26T07:07:18.650Z,10.80
2018-04-26T07:09:46.326Z,11.37
2018-04-26T07:12:13.995Z,11.63
2018-04-26T07:14:42.257Z,9.90
2018-04-26T07:17:09.824Z,9.50
2018-04-26T07:19:37.328Z,10.70
2018-04-26T07:22:05.599Z,9.67
2018-04-26T07:24:33.090Z,10.90
2018-04-26T07:27:00.753Z,10.90
2018-04-26T07:29:28.326Z,10.57
2018-04-26T07:31:56.624Z,10.37
2018-04-26T07:34:24.951Z,10.27
2018-04-26T07:36:52.506Z,11.23
2018-04-26T07:39:21.506Z,11.30
2018-04-26T07:41:49.749Z,10.90
2018-04-26T07:44:17.272Z,11.53
2018-04-26T07:46:45.628Z,14.40
2018-04-26T07:49:13.242Z,13.47
2018-04-26T07:51:40.921Z,14.57
2018-04-26T07:54:08.409Z,13.70
2018-04-26T07:56:35.935Z,14.13
2018-04-26T07:59:04.276Z,13.60
2018-04-26T08:01:32.196Z,14.63
2018-04-26T08:03:59.904Z,14.10
2018-04-26T08:06:27.431Z,14.30
2018-04-26T08:08:54.924Z,13.70
2018-04-26T08:11:23.240Z,13.37
2018-04-26T08:13:50.996Z,13.80
2018-04-26T08:16:19.384Z,13.97
2018-04-26T08:18:47.794Z,14.00
2018-04-26T08:21:15.330Z,14.73
2018-04-26T08:23:43.818Z,14.33
2018-04-26T08:26:11.348Z,13.50
2018-04-26T08:28:39.004Z,15.50
2018-04-26T08:31:06.757Z,14.57
2018-04-26T08:33:35.065Z,14.47
2018-04-26T08:36:02.642Z,14.63
2018-04-26T08:38:30.518Z,13.70
2018-04-26T08:40:58.035Z,15.10
2018-04-26T08:43:25.576Z,16.13
2018-04-26T08:45:53.295Z,16.27
2018-04-26T08:48:20.805Z,14.73
2018-04-26T08:50:48.287Z,17.90
2018-04-26T08:53:16.034Z,16.57
2018-04-26T08:55:43.623Z,16.07
2018-04-26T08:58:11.137Z,18.07
2018-04-26T09:00:38.838Z,14.13
2018-04-26T09:03:06.387Z,14.27
2018-04-26T09:05:33.883Z,11.50
2018-04-26T09:08:02.171Z,9.57
2018-04-26T09:10:29.875Z,8.97
2018-04-26T09:12:57.366Z,8.83
2018-04-26T09:15:24.880Z,8.10
2018-04-26T09:17:53.170Z,7.17
2018-04-26T09:20:20.711Z,7.80
2018-04-26T09:22:48.201Z,8.47
2018-04-26T09:25:17.353Z,5.97
2018-04-26T09:27:44.931Z,5.17
2018-04-26T09:30:12.536Z,4.87
2018-04-26T09:32:40.100Z,3.63
2018-04-26T09:35:07.581Z,4.37
2018-04-26T09:37:35.282Z,4.03
2018-04-26T09:40:02.799Z,4.27
2018-04-26T09:42:30.366Z,4.23
2018-04-26T09:44:57.901Z,4.30
2018-04-26T09:47:25.419Z,4.30
2018-04-26T09:49:52.937Z,4.37
2018-04-26T09:52:20.424Z,4.20
2018-04-26T09:54:48.753Z,3.83
2018-04-26T09:57:16.229Z,3.17
2018-04-26T09:59:43.750Z,3.40
2018-04-26T10:02:11.994Z,3.90
2018-04-26T10:04:45.237Z,3.53
2018-04-26T10:07:13.507Z,3.57
2018-04-26T10:09:41.065Z,4.00
2018-04-26T10:12:08.557Z,3.83
2018-04-26T10:14:36.260Z,3.77
2018-04-26T10:17:03.795Z,3.83
2018-04-26T10:19:31.260Z,3.47
2018-04-26T10:21:58.744Z,3.27
2018-04-26T10:24:26.244Z,3.30
2018-04-26T10:26:53.788Z,2.77
2018-04-26T10:29:21.498Z,3.07
2018-04-26T10:31:48.986Z,2.50
2018-04-26T10:34:16.494Z,2.60
2018-04-26T10:36:43.975Z,2.70
2018-04-26T10:39:11.555Z,2.73
2018-04-26T10:41:39.830Z,2.90
2018-04-26T10:44:08.093Z,2.20
2018-04-26T10:46:35.578Z,2.53
2018-04-26T10:49:03.096Z,1.97
2018-04-26T10:51:30.623Z,1.97
2018-04-26T10:53:58.210Z,1.83
2018-04-26T10:56:26.990Z,1.70
2018-04-26T10:58:54.668Z,1.73
2018-04-26T11:01:22.183Z,1.63
2018-04-26T11:03:49.773Z,1.77
2018-04-26T11:06:17.401Z,1.90
2018-04-26T11:08:45.661Z,1.60
2018-04-26T11:11:13.974Z,1.70
2018-04-26T11:13:42.281Z,1.53
2018-04-26T11:16:09.832Z,1.80
2018-04-26T11:18:38.224Z,1.90
2018-04-26T11:21:06.611Z,1.50
2018-04-26T11:23:34.111Z,1.77
2018-04-26T11:26:01.669Z,1.60
2018-04-26T11:28:29.986Z,1.10
2018-04-26T11:30:57.490Z,1.20
2018-04-26T11:33:24.996Z,1.63
2018-04-26T11:35:53.284Z,1.40
2018-04-26T11:38:21.571Z,1.27
2018-04-26T11:40:49.876Z,1.40
2018-04-26T11:43:17.899Z,1.00
2018-04-26T11:45:45.448Z,1.57
2018-04-26T11:48:13.915Z,1.77
2018-04-26T11:50:41.457Z,2.00
2018-04-26T11:53:09.432Z,1.50
2018-04-26T11:55:36.943Z,2.00
2018-04-26T11:58:04.428Z,1.70
2018-04-26T12:00:31.959Z,1.60
2018-04-26T12:03:00.252Z,2.10
2018-04-26T12:05:28.532Z,1.60
2018-04-26T12:07:56.108Z,2.00
2018-04-26T12:10:23.628Z,1.40
2018-04-26T12:12:51.528Z,2.00
2018-04-26T12:15:19.060Z,1.60
2018-04-26T12:17:46.576Z,1.50
2018-04-26T12:20:14.090Z,1.60
2018-04-26T12:22:41.673Z,1.80
2018-04-26T12:25:09.153Z,1.50
2018-04-26T12:27:36.720Z,1.70
2018-04-26T12:30:04.197Z,1.40
2018-04-26T12:32:31.739Z,1.70
2018-04-26T12:34:59.992Z,1.30
2018-04-26T12:37:27.520Z,1.30
2018-04-26T12:39:55.060Z,1.00
2018-04-26T12:42:23.337Z,1.07
2018-04-26T12:44:50.901Z,1.20
2018-04-26T12:47:18.391Z,1.33
2018-04-26T12:49:45.975Z,1.20
2018-04-26T12:52:14.248Z,1.27
2018-04-26T12:54:41.925Z,1.40
2018-04-26T12:57:10.331Z,1.73
2018-04-26T12:59:38.706Z,1.50
2018-04-26T13:02:07.124Z,1.60
2018-04-26T13:04:34.706Z,1.93
2018-04-26T13:07:02.231Z,1.33
2018-04-26T13:09:29.721Z,1.60
2018-04-26T13:11:58.009Z,2.03
2018-04-26T13:14:26.262Z,1.50
2018-04-26T13:16:53.861Z,1.50
2018-04-26T13:19:22.152Z,1.73
2018-04-26T13:21:50.394Z,1.30
2018-04-26T13:24:17.949Z,1.83
2018-04-26T13:26:45.566Z,2.00
2018-04-26T13:29:13.105Z,2.07
2018-04-26T13:31:40.641Z,2.30
2018-04-26T13:34:08.209Z,2.20
2018-04-26T13:36:36.531Z,2.10
2018-04-26T13:39:04.021Z,1.80
2018-04-26T13:41:31.540Z,1.97
2018-04-26T13:43:59.034Z,2.10
2018-04-26T13:46:26.774Z,1.97
2018-04-26T13:48:55.038Z,1.67
2018-04-26T13:51:22.663Z,1.53
2018-04-26T13:53:50.160Z,1.60
2018-04-26T13:56:17.764Z,1.77
2018-04-26T13:58:45.353Z,1.40
2018-04-26T14:01:13.657Z,1.37
2018-04-26T14:03:41.180Z,1.20
2018-04-26T14:06:08.766Z,1.17
2018-04-26T14:08:36.573Z,1.00
2018-04-26T14:11:04.352Z,1.00
2018-04-26T14:13:31.866Z,1.20
2018-04-26T14:15:59.405Z,1.10
2018-04-26T14:18:27.061Z,1.17
2018-04-26T14:20:55.343Z,1.20
2018-04-26T14:23:23.624Z,1.00
2018-04-26T14:25:51.898Z,0.70
2018-04-26T14:28:19.501Z,1.07
2018-04-26T14:30:47.766Z,1.03
2018-04-26T14:33:15.407Z,0.73
2018-04-26T14:35:42.980Z,1.33
2018-04-26T14:38:10.515Z,1.13
2018-04-26T14:40:38.343Z,1.20
2018-04-26T14:43:06.211Z,1.20
2018-04-26T14:45:33.914Z,1.17
2018-04-26T14:48:02.282Z,1.00
2018-04-26T14:50:30.535Z,1.20
2018-04-26T14:52:58.549Z,1.00
2018-04-26T14:55:26.085Z,0.90
2018-04-26T14:57:53.641Z,1.23
2018-04-26T15:00:21.138Z,1.20
2018-04-26T15:02:48.786Z,1.47
2018-04-26T15:05:16.317Z,1.70
2018-04-26T15:07:43.839Z,1.73
2018-04-26T15:10:11.474Z,2.40
2018-04-26T15:12:39.766Z,2.30
2018-04-26T15:15:07.336Z,1.80
2018-04-26T15:17:34.841Z,2.30
2018-04-26T15:20:02.550Z,1.97
2018-04-26T15:22:30.081Z,2.37
2018-04-26T15:24:57.566Z,2.03
2018-04-26T15:27:25.161Z,2.20
2018-04-26T15:29:52.660Z,2.43
2018-04-26T15:32:21.070Z,2.20
2018-04-26T15:34:49.348Z,2.30
2018-04-26T15:37:17.607Z,2.60
2018-04-26T15:39:45.155Z,2.70
2018-04-26T15:42:12.726Z,2.27
2018-04-26T15:44:40.276Z,2.60
2018-04-26T15:47:07.774Z,2.53
2018-04-26T15:49:35.383Z,2.70
2018-04-26T15:52:02.967Z,1.87
2018-04-26T15:54:35.778Z,2.07
2018-04-26T15:57:25.619Z,2.07
2018-04-26T16:00:05.022Z,2.50
2018-04-26T16:03:00.027Z,2.30
2018-04-26T16:05:39.459Z,1.70
2018-04-26T16:08:24.714Z,2.00
2018-04-26T16:11:09.874Z,2.07
2018-04-26T16:13:55.045Z,1.93
2018-04-26T16:16:41.098Z,1.83
2018-04-26T16:19:28.415Z,1.80
2018-04-26T16:22:13.892Z,1.70
2018-04-26T16:24:54.960Z,2.30
2018-04-26T16:27:40.887Z,2.20
2018-04-26T16:30:20.158Z,1.73
2018-04-26T16:33:05.737Z,2.00
2018-04-26T16:35:45.803Z,1.53
2018-04-26T16:38:25.710Z,1.80
2018-04-26T16:40:53.203Z,1.83
2018-04-26T16:43:21.484Z,1.67
2018-04-26T16:45:48.978Z,1.50
2018-04-26T16:48:16.593Z,1.70
2018-04-26T16:50:44.118Z,1.63
2018-04-26T16:53:11.648Z,1.70
2018-04-26T16:55:39.293Z,1.97
2018-04-26T16:58:06.825Z,1.70
2018-04-26T17:00:35.218Z,1.87
2018-04-26T17:03:03.510Z,1.60
2018-04-26T17:05:32.017Z,1.70
2018-04-26T17:07:59.662Z,1.33
2018-04-26T17:10:27.950Z,1.70
2018-04-26T17:12:56.274Z,1.60
2018-04-26T17:15:24.437Z,1.47
2018-04-26T17:17:52.013Z,1.87
2018-04-26T17:20:20.297Z,1.90
2018-04-26T17:22:48.577Z,2.00
2018-04-26T17:25:16.868Z,1.93
2018-04-26T17:27:45.160Z,1.77
2018-04-26T17:30:13.517Z,1.60
2018-04-26T17:32:41.128Z,1.50
2018-04-26T17:35:08.676Z,1.70
2018-04-26T17:37:36.256Z,1.40
2018-04-26T17:40:04.632Z,1.90
2018-04-26T17:42:32.107Z,1.80
2018-04-26T17:44:59.669Z,2.50
2018-04-26T17:47:27.979Z,1.80
2018-04-26T17:49:56.268Z,2.10
2018-04-26T17:52:24.578Z,2.07
2018-04-26T17:54:52.145Z,2.30
2018-04-26T17:57:19.704Z,2.80
2018-04-26T17:59:48.314Z,2.33
2018-04-26T18:02:15.882Z,2.23
2018-04-26T18:04:43.600Z,2.80
2018-04-26T18:07:11.139Z,2.50
2018-04-26T18:09:38.885Z,2.80
2018-04-26T18:12:07.306Z,2.80
2018-04-26T18:14:34.934Z,2.20
2018-04-26T18:17:02.765Z,1.90
2018-04-26T18:19:30.472Z,2.60
2018-04-26T18:21:58.044Z,2.00
2018-04-26T18:24:25.651Z,1.70
2018-04-26T18:26:54.073Z,1.57
2018-04-26T18:29:21.613Z,1.50
2018-04-26T18:31:49.883Z,1.80
2018-04-26T18:34:17.702Z,1.70
2018-04-26T18:36:46.090Z,1.00
2018-04-26T18:39:13.688Z,1.30
2018-04-26T18:41:41.203Z,1.77
2018-04-26T18:44:08.964Z,1.53
2018-04-26T18:46:38.116Z,1.63
2018-04-26T18:49:05.647Z,1.70
2018-04-26T18:51:33.172Z,1.83
2018-04-26T18:54:00.741Z,1.47
2018-04-26T18:56:28.265Z,1.40
2018-04-26T18:58:56.133Z,1.50
2018-04-26T19:01:23.661Z,1.60
2018-04-26T19:03:51.284Z,1.77
2018-04-26T19:06:18.785Z,1.10
2018-04-26T19:08:46.443Z,1.33
2018-04-26T19:11:14.010Z,1.30
2018-04-26T19:13:42.338Z,0.97
2018-04-26T19:16:09.937Z,1.10
2018-04-26T19:18:37.503Z,1.30
2018-04-26T19:21:05.187Z,1.47
2018-04-26T19:23:32.970Z,1.30
2018-04-26T19:26:00.669Z,1.30
2018-04-26T19:28:28.429Z,1.47
2018-04-26T19:30:56.010Z,1.50
2018-04-26T19:33:23.681Z,1.67
2018-04-26T19:35:52.175Z,1.60
2018-04-26T19:38:20.475Z,1.43
2018-04-26T19:40:48.052Z,1.40
2018-04-26T19:43:16.518Z,1.37
2018-04-26T19:45:44.086Z,1.60
2018-04-26T19:48:11.622Z,1.80
2018-04-26T19:50:39.219Z,1.70
2018-04-26T19:53:06.722Z,1.83
2018-04-26T19:55:34.352Z,1.90
2018-04-26T19:58:01.864Z,1.67
2018-04-26T20:00:30.634Z,1.97
2018-04-26T20:02:58.239Z,1.40
2018-04-26T20:05:25.798Z,1.77
2018-04-26T20:07:53.350Z,1.30
2018-04-26T20:10:22.462Z,1.60
2018-04-26T20:12:50.077Z,1.20
2018-04-26T20:15:17.701Z,1.60
2018-04-26T20:17:45.342Z,1.53
2018-04-26T20:20:13.304Z,1.30
2018-04-26T20:22:41.665Z,1.50
2018-04-26T20:25:09.264Z,1.50
2018-04-26T20:27:37.566Z,1.50
2018-04-26T20:30:05.270Z,1.60
2018-04-26T20:32:32.863Z,1.60
2018-04-26T20:35:00.526Z,0.97
2018-04-26T20:37:28.048Z,1.73
2018-04-26T20:39:56.338Z,1.77
2018-04-26T20:42:24.913Z,1.70
2018-04-26T20:44:52.556Z,1.20
2018-04-26T20:47:20.085Z,1.30
2018-04-26T20:49:47.718Z,1.47
2018-04-26T20:52:15.207Z,1.37
2018-04-26T20:54:43.527Z,1.43
2018-04-26T20:57:11.078Z,1.70
2018-04-26T20:59:39.384Z,1.20
2018-04-26T21:02:06.990Z,1.33
2018-04-26T21:04:34.541Z,1.20
2018-04-26T21:07:02.081Z,1.60
2018-04-26T21:09:30.386Z,1.10
2018-04-26T21:11:58.163Z,1.50
2018-04-26T21:14:25.675Z,1.43
2018-04-26T21:16:53.179Z,1.20
2018-04-26T21:19:20.711Z,1.40
2018-04-26T21:21:48.264Z,1.30
2018-04-26T21:24:15.944Z,1.50
2018-04-26T21:26:43.591Z,1.33
2018-04-26T21:29:11.142Z,1.60
2018-04-26T21:31:39.407Z,1.70
2018-04-26T21:34:06.972Z,1.70
2018-04-26T21:36:34.448Z,1.50
2018-04-26T21:39:02.047Z,2.03
2018-04-26T21:41:30.326Z,1.90
2018-04-26T21:43:58.576Z,1.87
2018-04-26T21:46:26.097Z,2.00
2018-04-26T21:48:53.660Z,2.20
2018-04-26T21:58:18.454Z,2.00
2018-04-26T22:00:52.466Z,2.27
2018-04-26T22:03:35.702Z,1.57
2018-04-26T22:06:04.064Z,2.13
2018-04-26T22:08:31.538Z,2.00
2018-04-26T22:10:59.062Z,1.60
2018-04-26T22:13:26.615Z,2.13
2018-04-26T22:15:54.389Z,2.10
2018-04-26T22:18:22.785Z,1.73
2018-04-26T22:20:51.176Z,1.77
2018-04-26T22:23:19.558Z,2.57
2018-04-26T22:25:47.817Z,2.60
2018-04-26T22:28:15.356Z,2.10
2018-04-26T22:30:43.023Z,2.20
2018-04-26T22:33:10.639Z,1.87
2018-04-26T22:35:38.148Z,2.40
2018-04-26T22:38:06.387Z,2.27
2018-04-26T22:40:33.973Z,1.90
2018-04-26T22:43:01.465Z,2.40
2018-04-26T22:45:29.893Z,1.97
2018-04-26T22:47:57.373Z,2.50
2018-04-26T22:50:24.895Z,2.10
2018-04-26T22:52:53.141Z,2.37
2018-04-26T22:55:20.776Z,2.60
2018-04-26T22:57:48.417Z,2.43
2018-04-26T23:00:15.934Z,2.70
2018-04-26T23:02:43.441Z,3.00
2018-04-26T23:05:11.054Z,3.47
2018-04-26T23:07:38.565Z,3.10
2018-04-26T23:10:06.091Z,2.63
2018-04-26T23:12:34.448Z,2.63
2018-04-26T23:15:01.946Z,2.90
2018-04-26T23:17:30.240Z,3.03
2018-04-26T23:19:58.613Z,2.57
2018-04-26T23:22:26.187Z,2.63
2018-04-26T23:24:53.727Z,2.30
2018-04-26T23:27:21.237Z,2.50
2018-04-26T23:29:49.484Z,3.47
2018-04-26T23:32:17.014Z,3.43
2018-04-26T23:34:44.569Z,2.87
2018-04-26T23:37:12.039Z,3.10
2018-04-26T23:39:40.339Z,3.20
2018-04-26T23:42:08.593Z,2.97
2018-04-26T23:44:36.068Z,2.83
2018-04-26T23:47:03.579Z,2.90
2018-04-26T23:49:31.212Z,3.20
2018-04-26T23:51:58.800Z,3.07
2018-04-26T23:54:27.046Z,2.43
2018-04-26T23:56:54.561Z,2.77
2018-04-26T23:59:22.852Z,3.30
